Terminal Aerodrome Forecast
Issued by NWS Shreveport, LA

Home | Current Version | Previous Version | Text Only | Print | Product List | Glossary On
Versions: 1 2 3 4 5 6 7 8 9 10 11 12 13 14 15 16 17 18
000
FTUS44 KSHV 280800 AAA
TAFSHV
TAF AMD
KSHV 280802Z 2808/2906 33008KT 5SM -DZ BR OVC004
      TEMPO 2808/2811 2SM -RA BR OVC008
     FM281100 35008KT 4SM -RA BR OVC003
     FM281300 35008KT 2SM -RA BR OVC003
     FM281500 34007KT 3SM -SHRA BR OVC010
     FM282100 36005KT 4SM BR OVC007
     FM290300 35003KT 4SM BR OVC025=

USA.gov is the U.S. government's official web portal to all federal, state and local government web resources and services.